Tiempo atmosférico en la estación meteorológica de Irurtzun, Navarra (455 m.)



Fecha
DESCASC
Temp. máxima en grados centígrados (hora)
DESCASC
Temp. mínima en grados centígrados (hora)
DESCASC
Temp. media en grados centígrados
DESCASC
Racha de viento máxima en m/sg (hora)
DESCASC
Velocidad máxima media en intervalos de 10 minutos(hora)
DESCASC
Precipitaciones diarias en mm
DESCASC
Precipitaciones de 00:00 a 06:00 en mm
DESCASC
Precipitaciones de 06:00 a 12:00 en mm
DESCASC
Precipitaciones de 12:00 a 18:00 en mm
DESCASC
Precipitaciones de 18:00 a 24:00 en mm
DESCASC
24-05-2020 21.7 (15:10) 11.4 (06:40) 16.6 9.17 (18:40) 4.44 (18:00) 0 0 0 0 0
23-05-2020 17.5 (14:30) 12.6 (21:20) 15.1 11.67 (11:50) 5.56 (13:30) 0 0 0 0 0
22-05-2020 28.5 (17:10) 11.5 (06:30) 20 7.5 (19:30) 3.89 (18:30) 0 0 0 0 0
21-05-2020 30.9 (17:20) 11.7 (00:00) 21.3 6.11 (06:10) 2.78 (05:30) 0 0 0 0 0
20-05-2020 27.8 (16:40) 8.9 (00:00) 18.3 8.89 (14:30) 3.33 (15:20) 0 0 0 0 0
19-05-2020 24 (15:10) 8.3 (00:00) 16.2 10.83 (11:40) 4.17 (12:30) 0 0 0 0 0
18-05-2020 22.8 (16:20) 6.7 (00:00) 14.7 10 (10:50) 4.17 (11:40) 0 0 0 0 0
17-05-2020 20.1 (17:10) 7.7 (00:00) 13.9 9.72 (17:30) 4.17 (21:20) 0 0 0 0 0
16-05-2020 17 (17:10) 10 (00:00) 13.5 10 (12:10) 3.89 (12:10) 0 0 0 0 0
15-05-2020 12.5 (14:50) 10.3 (00:00) 11.4 9.17 (22:30) 4.44 (22:10) 0 0 0 0 0
14-05-2020 14.3 (12:10) 10.1 (00:00) 12.2 8.61 (18:10) 4.17 (18:00) 0 0 0 0 0
13-05-2020 18.3 (15:10) 9.9 (00:00) 14.1 5.28 (19:50) 2.5 (20:00) 27.6 25.4 2.2 0 0
12-05-2020 19.7 (16:40) 9.5 (00:00) 14.6 6.94 (18:10) 3.61 (18:30) 3 0 0 0 3
11-05-2020 19.6 (15:10) 11 (00:00) 15.3 10.28 (16:30) 4.72 (18:00) 1.8 1.6 0 0.2 0
10-05-2020 16.9 (14:50) 11.6 (00:00) 14.3 7.78 (08:40) 3.33 (20:50) 19.4 0 7.2 4.4 7.8
09-05-2020 27 (17:40) 11.4 (07:20) 19.2 12.22 (05:00) 6.11 (13:40) 2.8 2.8 0 0 0
08-05-2020 28.2 (16:10) 15.3 (00:00) 21.8 13.06 (11:00) 6.39 (11:20) 0.6 0 0 0 0.6
07-05-2020 28.1 (17:10) 10.1 (00:00) 19.1 10 (15:40) 4.72 (22:10) 0 0 0 0 0
06-05-2020 27.2 (15:30) 8.1 (00:00) 17.7 7.22 (19:50) 3.06 (16:30) 0 0 0 0 0
05-05-2020 27.5 (18:30) 11.8 (00:00) 19.7 7.5 (19:20) 3.61 (00:10) 0 0 0 0 0
04-05-2020 29.4 (14:50) 12.2 (00:00) 20.8 10.28 (14:00) 5.56 (14:30) 1.8 0 0 0 1.8
03-05-2020 28.1 (18:00) 8.7 (00:00) 18.4 5.83 (14:20) 3.06 (16:30) 0 0 0 0 0
02-05-2020 24.1 (15:30) 12.7 (00:00) 18.4 10 (20:40) 4.44 (12:50) 3.6 3.6 0 0 0
01-05-2020 22.5 (17:00) 14.1 (00:00) 18.3 8.89 (12:30) 4.72 (19:20) 4.8 0 0 0.6 4.2
30-04-2020 19.5 (15:20) 11.7 (00:00) 15.6 13.33 (03:10) 4.17 (03:40) 0 0 0 0 0
29-04-2020 20.4 (15:30) 5 (00:00) 12.7 11.39 (18:50) 4.72 (18:50) 0 0 0 0 0
28-04-2020 17 (13:50) 6.5 (03:40) 11.8 10 (17:40) 5.56 (15:20) 0 0 0 0 0

Gráficas

Temp. máximas Temp. mínimas Temp. medias Precipitaciones Rachas de viento máximas Velocidades máximas media en intervalos de 10 minutos

Datos horarios

Fecha y hora oficial Temperatura (ºC) Velocidad del viento (km/h) Dirección del viento Racha (km/h) Dirección de racha Precipitación (mm) Presión (hPa) Tendencia (hPa) Humedad (%)
2020-05-27 23:00:00 19 3 Nordeste 11 Norte 0 -- -- 83
2020-05-27 22:00:00 19.6 0 Calma 9 Sur 0 -- -- 80
2020-05-27 21:00:00 23.3 5 Sudeste 11 Sur 0 -- -- 66
2020-05-27 20:00:00 24.5 8 Sudeste 34 Sudeste 0 -- -- 59
2020-05-27 19:00:00 26.5 10 Norte 22 Nordeste 0 -- -- 61
2020-05-27 18:00:00 27.9 10 Norte 21 Norte 0 -- -- 56
2020-05-27 17:00:00 29.7 4 Noroeste 12 Norte 0 -- -- 43
2020-05-27 16:00:00 30 4 Este 14 Sur 0 -- -- 41
2020-05-27 15:00:00 29.3 4 Este 15 Este 0 -- -- 44
2020-05-27 14:00:00 27.8 7 Este 18 Este 0 -- -- 47
2020-05-27 13:00:00 26.4 8 Este 14 Este 0 -- -- 50
2020-05-27 12:00:00 24.4 2 Sudoeste 7 Este 0 -- -- 55
2020-05-27 11:00:00 21.1 2 Noroeste 8 Noroeste 0 -- -- 62
2020-05-27 10:00:00 17.8 0 Calma 7 Noroeste 0 -- -- 69
2020-05-27 09:00:00 13.7 0 Calma 5 Noroeste 0 -- -- 89
2020-05-27 08:00:00 10.6 0 Calma 5 Norte 0 -- -- 94
2020-05-27 07:00:00 10.3 0 Calma 7 Nordeste 0 -- -- 94
2020-05-27 06:00:00 10.3 0 Calma 6 Norte 0 -- -- 93
2020-05-27 05:00:00 10.9 2 Noroeste 5 Nordeste 0 -- -- 92
2020-05-27 04:00:00 11.8 2 Norte 7 Nordeste 0 -- -- 88
2020-05-27 03:00:00 12.6 2 Norte 6 Sudoeste 0 -- -- 87
2020-05-27 02:00:00 13.6 3 Norte 11 Sudoeste 0 -- -- 84
2020-05-27 01:00:00 14.4 0 Calma 6 Noroeste 0 -- -- 82
2020-05-27 00:00:00 15.5 3 Noroeste 13 Noroeste 0 -- -- 80
2020-05-26 23:00:00 17 6 Oeste 16 Oeste 0 -- -- 73
2020-05-26 22:00:00 18.2 7 Oeste 21 Oeste 0 -- -- 72
2020-05-26 21:00:00 20.5 6 Noroeste 24 Norte 0 -- -- 65
2020-05-26 20:00:00 22.1 7 Noroeste 22 Nordeste 0 -- -- 59
2020-05-26 19:00:00 23.1 4 Norte 23 Oeste 0 -- -- 58
2020-05-26 18:00:00 23.3 10 Noroeste 32 Noroeste 0 -- -- 63
2020-05-26 17:00:00 23.9 12 Noroeste 31 Oeste 0 -- -- 62
2020-05-26 16:00:00 24.8 8 Norte 20 Norte 0 -- -- 59
2020-05-26 15:00:00 24.5 7 Norte 19 Oeste 0 -- -- 56
2020-05-26 14:00:00 23.7 6 Noroeste 22 Norte 0 -- -- 54
2020-05-26 13:00:00 23.4 10 Norte 24 Noroeste 0 -- -- 51
2020-05-26 12:00:00 21.6 8 Noroeste 18 Noroeste 0 -- -- 60
2020-05-26 11:00:00 18.8 8 Oeste 17 Noroeste 0 -- -- 70
2020-05-26 10:00:00 15.9 8 Noroeste 18 Oeste 0 -- -- 79
2020-05-26 09:00:00 13.3 6 Oeste 15 Oeste 0 -- -- 86
2020-05-26 08:00:00 11.9 6 Oeste 14 Noroeste 0 -- -- 88
2020-05-26 07:00:00 11 8 Oeste 16 Oeste 0 -- -- 89
2020-05-26 06:00:00 11.1 5 Noroeste 17 Oeste 0 -- -- 86
2020-05-26 05:00:00 11.3 5 Oeste 14 Oeste 0 -- -- 85
2020-05-26 04:00:00 11.9 3 Norte 16 Noroeste 0 -- -- 80
2020-05-26 03:00:00 12.6 5 Noroeste 14 Noroeste 0 -- -- 76
2020-05-26 02:00:00 13.1 4 Norte 15 Sudoeste 0 -- -- 73
2020-05-26 01:00:00 14.5 9 Oeste 24 Sudoeste 0 -- -- 68
2020-05-26 00:00:00 15.2 11 Oeste 28 Sudoeste 0 -- -- 62
2020-05-25 23:00:00 15.5 12 Oeste 25 Oeste 0 -- -- 65
2020-05-25 22:00:00 16 11 Oeste 22 Oeste 0 -- -- 66
2020-05-25 21:00:00 16.8 11 Oeste 27 Oeste 0 -- -- 72
2020-05-25 20:00:00 17.6 9 Noroeste 29 Oeste 0 -- -- 71
2020-05-25 19:00:00 17.8 9 Oeste 31 Oeste 0 -- -- 74
2020-05-25 18:00:00 19 10 Oeste 21 Oeste 0 -- -- 74
2020-05-25 17:00:00 20.2 7 Noroeste 22 Oeste 0 -- -- 72
2020-05-25 16:00:00 20.1 10 Oeste 19 Oeste 0 -- -- 68
2020-05-25 15:00:00 19.4 9 Oeste 19 Oeste 0 -- -- 70
2020-05-25 14:00:00 19.3 6 Oeste 17 Oeste 0 -- -- 70
2020-05-25 13:00:00 18.7 6 Oeste 15 Oeste 0 -- -- 72
2020-05-25 12:00:00 18.3 7 Oeste 14 Oeste 0 -- -- 70
2020-05-25 11:00:00 17.8 7 Oeste 17 Oeste 0 -- -- 73
2020-05-25 10:00:00 16.5 8 Oeste 14 Oeste 0 -- -- 76
2020-05-25 09:00:00 14.8 5 Noroeste 13 Oeste 0 -- -- 83
2020-05-25 08:00:00 13.7 3 Noroeste 13 Oeste 0 -- -- 88
2020-05-25 07:00:00 13.2 5 Noroeste 12 Sudoeste 0 -- -- 89
2020-05-25 06:00:00 13 3 Noroeste 10 Oeste 0 -- -- 89
2020-05-25 05:00:00 12.8 4 Noroeste 10 Noroeste 0 -- -- 90
2020-05-25 04:00:00 13 3 Noroeste 12 Oeste 0 -- -- 90
2020-05-25 03:00:00 13.3 3 Noroeste 10 Noroeste 0 -- -- 88
2020-05-25 02:00:00 13.3 2 Noroeste 11 Noroeste 0 -- -- 88
2020-05-25 01:00:00 13.5 5 Noroeste 11 Noroeste 0 -- -- 86
2020-05-25 00:00:00 14.3 5 Noroeste 13 Noroeste 0 -- -- 83
2020-05-24 23:00:00 15.1 5 Oeste 21 Oeste 0 -- -- 80
2020-05-24 22:00:00 16 6 Oeste 23 Noroeste 0 -- -- 75
2020-05-24 21:00:00 16.9 6 Noroeste 20 Oeste 0 -- -- 72
2020-05-24 20:00:00 17.7 10 Norte 22 Noroeste 0 -- -- 69
2020-05-24 19:00:00 18 9 Norte 33 Noroeste 0 -- -- 67
2020-05-24 18:00:00 18.6 16 Norte 30 Noroeste 0 -- -- 67
2020-05-24 17:00:00 20.7 12 Norte 27 Nordeste 0 -- -- 62
2020-05-24 16:00:00 21 11 Norte 26 Noroeste 0 -- -- 60
2020-05-24 15:00:00 21.5 9 Nordeste 21 Nordeste 0 -- -- 56
2020-05-24 14:00:00 19.7 8 Norte 21 Norte 0 -- -- 60
2020-05-24 13:00:00 18.6 10 Nordeste 24 Este 0 -- -- 60
2020-05-24 12:00:00 18.3 10 Nordeste 23 Norte 0 -- -- 62
2020-05-24 11:00:00 16.1 6 Norte 19 Nordeste 0 -- -- 64
2020-05-24 10:00:00 14 4 Noroeste 15 Norte 0 -- -- 71
2020-05-24 09:00:00 13.2 5 Oeste 15 Norte 0 -- -- 73
2020-05-24 08:00:00 11.9 8 Noroeste 19 Norte 0 -- -- 77
2020-05-24 07:00:00 11.5 9 Noroeste 19 Oeste 0 -- -- 78
2020-05-24 06:00:00 11.7 7 Noroeste 23 Oeste 0 -- -- 77
2020-05-24 05:00:00 12.2 10 Noroeste 25 Noroeste 0 -- -- 78
2020-05-24 04:00:00 12.4 6 Noroeste 22 Oeste 0 -- -- 78
2020-05-24 03:00:00 12.6 6 Noroeste 29 Oeste 0 -- -- 79
2020-05-24 02:00:00 12.6 12 Oeste 29 Oeste 0 -- -- 78
2020-05-24 01:00:00 12.5 14 Oeste 26 Oeste 0 -- -- 79
2020-05-24 00:00:00 12.8 8 Oeste 31 Noroeste 0 -- -- 79
2020-05-23 23:00:00 12.8 11 Oeste 32 Oeste 0 -- -- 77
2020-05-23 22:00:00 12.6 13 Oeste 27 Oeste 0 -- -- 77
2020-05-23 21:00:00 13 8 Noroeste 18 Oeste 0 -- -- 78
2020-05-23 20:00:00 14.4 10 Noroeste 24 Oeste 0 -- -- 75
2020-05-23 19:00:00 14.5 8 Norte 38 Oeste 0 -- -- 76
2020-05-23 18:00:00 15.4 10 Noroeste 35 Noroeste 0 -- -- 71
2020-05-23 17:00:00 15.2 14 Norte 33 Norte 0 -- -- 71
2020-05-23 16:00:00 15.4 15 Norte 39 Noroeste 0 -- -- 74
2020-05-23 15:00:00 16.7 8 Norte 28 Noroeste 0 -- -- 72
2020-05-23 14:00:00 16 15 Norte 37 Norte 0 -- -- 72
2020-05-23 13:00:00 16.8 7 Norte 29 Nordeste 0 -- -- 74
2020-05-23 12:00:00 17.1 6 Sudoeste 42 Oeste 0 -- -- 74
2020-05-23 11:00:00 16.2 15 Noroeste 35 Noroeste 0 -- -- 85
2020-05-23 10:00:00 16.8 8 Oeste 20 Oeste 0 -- -- 83
2020-05-23 09:00:00 16.7 4 Noroeste 18 Oeste 0 -- -- 82
2020-05-23 08:00:00 16.2 6 Oeste 19 Oeste 0 -- -- 84
2020-05-23 07:00:00 15.8 10 Oeste 21 Noroeste 0 -- -- 86
2020-05-23 06:00:00 15.9 11 Noroeste 22 Norte 0 -- -- 85
2020-05-23 05:00:00 15.9 7 Noroeste 29 Oeste 0 -- -- 85
2020-05-23 04:00:00 15.9 10 Oeste 23 Norte 0 -- -- 85
2020-05-23 03:00:00 16 8 Oeste 15 Noroeste 0 -- -- 86
2020-05-23 02:00:00 16.2 7 Noroeste 13 Oeste 0 -- -- 85
2020-05-23 01:00:00 16.5 5 Oeste 13 Noroeste 0 -- -- 85
2020-05-23 00:00:00 17.1 2 Sudoeste 19 Oeste 0 -- -- 83
2020-05-22 23:00:00 17.2 11 Noroeste 24 Noroeste 0 -- -- 84
2020-05-22 22:00:00 17.8 13 Noroeste 24 Noroeste 0 -- -- 84
2020-05-22 21:00:00 19.2 8 Noroeste 20 Norte 0 -- -- 81
2020-05-22 20:00:00 22.9 11 Noroeste 27 Nordeste 0 -- -- 71
2020-05-22 19:00:00 26.1 12 Norte 26 Norte 0 -- -- 63
2020-05-22 18:00:00 27.9 9 Norte 18 Norte 0 -- -- 58
2020-05-22 17:00:00 28.4 9 Norte 22 Norte 0 -- -- 53
2020-05-22 16:00:00 28.2 7 Norte 17 Norte 0 -- -- 51
2020-05-22 15:00:00 27.4 6 Norte 18 Norte 0 -- -- 53
2020-05-22 14:00:00 26.6 5 Norte 13 Nordeste 0 -- -- 55
2020-05-22 13:00:00 25.1 5 Noroeste 13 Noroeste 0 -- -- 57
2020-05-22 12:00:00 23.4 7 Sudoeste 19 Oeste 0 -- -- 61
2020-05-22 11:00:00 21.5 7 Oeste 21 Oeste 0 -- -- 66
2020-05-22 10:00:00 19.3 2 Nordeste 9 Noroeste 0 -- -- 78
2020-05-22 09:00:00 15.1 2 Norte 5 Norte 0 -- -- 95
2020-05-22 08:00:00 12.3 0 Calma 2 Este 0 -- -- 97
2020-05-22 07:00:00 11.6 0 Calma 3 Sur 0 -- -- 97
2020-05-22 06:00:00 12 2 Sur 3 Norte 0 -- -- 96
2020-05-22 05:00:00 12.3 0 Calma 4 Oeste 0 -- -- 96
2020-05-22 04:00:00 12.8 0 Calma 2 Sur 0 -- -- 95
2020-05-22 03:00:00 13.3 0 Calma 2 Sur 0 -- -- 95
2020-05-22 02:00:00 14.1 0 Calma 0 Calma 0 -- -- 94
2020-05-22 01:00:00 15 0 Calma 0 Calma 0 -- -- 92
2020-05-22 00:00:00 16.3 0 Calma 3 Noroeste 0 -- -- 89
2020-05-21 23:00:00 18.3 0 Calma 5 Nordeste 0 -- -- 85
2020-05-21 22:00:00 21.1 2 Noroeste 10 Norte 0 -- -- 77
2020-05-21 21:00:00 25.1 3 Noroeste 16 Noroeste 0 -- -- 64
2020-05-21 20:00:00 27.4 8 Norte 13 Noroeste 0 -- -- 54
2020-05-21 19:00:00 29.3 4 Noroeste 9 Norte 0 -- -- 46
2020-05-21 18:00:00 29.6 5 Norte 12 Norte 0 -- -- 42
2020-05-21 17:00:00 29.7 4 Noroeste 9 Noroeste 0 -- -- 41
2020-05-21 16:00:00 29.3 4 Noroeste 10 Norte 0 -- -- 42
2020-05-21 15:00:00 28.6 4 Oeste 9 Norte 0 -- -- 44
2020-05-21 14:00:00 28.1 4 Sur 13 Sur 0 -- -- 43
2020-05-21 13:00:00 26 4 Sur 12 Oeste 0 -- -- 51
2020-05-21 12:00:00 23 6 Oeste 15 Oeste 0 -- -- 58
2020-05-21 11:00:00 20.1 7 Oeste 13 Oeste 0 -- -- 62
2020-05-21 10:00:00 17.7 5 Oeste 14 Oeste 0 -- -- 71
2020-05-21 09:00:00 14.3 5 Noroeste 13 Oeste 0 -- -- 82
2020-05-21 08:00:00 12.3 5 Oeste 17 Oeste 0 -- -- 89
2020-05-21 07:00:00 11.9 4 Noroeste 22 Oeste 0 -- -- 86
2020-05-21 06:00:00 12.7 6 Noroeste 20 Oeste 0 -- -- 82
2020-05-21 05:00:00 12.4 2 Oeste 9 Norte 0 -- -- 81
2020-05-21 04:00:00 14.7 8 Noroeste 18 Sudoeste 0 -- -- 72
2020-05-21 03:00:00 13.7 4 Norte 13 Sudoeste 0 -- -- 76
2020-05-21 02:00:00 14.4 3 Noroeste 13 Oeste 0 -- -- 76
2020-05-21 01:00:00 14.1 4 Norte 8 Oeste 0 -- -- 80
2020-05-21 00:00:00 15.9 3 Noroeste 11 Oeste 0 -- -- 75
2020-05-20 23:00:00 17.5 6 Oeste 15 Oeste 0 -- -- 74
2020-05-20 22:00:00 19.3 6 Oeste 21 Noroeste 0 -- -- 70
2020-05-20 21:00:00 22 8 Noroeste 18 Norte 0 -- -- 63
2020-05-20 20:00:00 24.6 9 Noroeste 23 Noroeste 0 -- -- 51
2020-05-20 19:00:00 26.1 7 Noroeste 24 Norte 0 -- -- 47
2020-05-20 18:00:00 26.8 7 Norte 23 Nordeste 0 -- -- 44
2020-05-20 17:00:00 27.6 9 Nordeste 20 Este 0 -- -- 39
2020-05-20 16:00:00 27.5 9 Nordeste 24 Nordeste 0 -- -- 41
2020-05-20 15:00:00 27.2 8 Norte 32 Noroeste 0 -- -- 38
2020-05-20 14:00:00 26.2 8 Norte 25 Nordeste 0 -- -- 39
2020-05-20 13:00:00 25.1 11 Noroeste 25 Noroeste 0 -- -- 39
2020-05-20 12:00:00 24.1 9 Noroeste 24 Noroeste 0 -- -- 43
2020-05-20 11:00:00 21 8 Oeste 17 Oeste 0 -- -- 59
2020-05-20 10:00:00 17.2 6 Oeste 15 Oeste 0 -- -- 69
2020-05-20 09:00:00 12.4 3 Norte 7 Norte 0 -- -- 85
2020-05-20 08:00:00 9.8 4 Noroeste 10 Norte 0 -- -- 92
2020-05-20 07:00:00 9.2 3 Norte 6 Oeste 0 -- -- 93
2020-05-20 06:00:00 9.4 3 Noroeste 7 Noroeste 0 -- -- 90
2020-05-20 05:00:00 10.6 0 Calma 7 Sudeste 0 -- -- 86
2020-05-20 04:00:00 11.2 2 Noroeste 11 Oeste 0 -- -- 84
2020-05-20 03:00:00 11.5 3 Noroeste 11 Noroeste 0 -- -- 84
2020-05-20 02:00:00 11.3 3 Norte 11 Noroeste 0 -- -- 85
2020-05-20 01:00:00 13.3 4 Oeste 10 Sudoeste 0 -- -- 77
2020-05-20 00:00:00 15.5 4 Noroeste 22 Noroeste 0 -- -- 67
2020-05-19 23:00:00 16.4 7 Oeste 26 Oeste 0 -- -- 64
2020-05-19 22:00:00 17.2 7 Oeste 19 Oeste 0 -- -- 61
2020-05-19 21:00:00 19.1 9 Oeste 23 Sudoeste 0 -- -- 59
2020-05-19 20:00:00 21.5 6 Noroeste 24 Norte 0 -- -- 55
2020-05-19 19:00:00 22.4 8 Noroeste 28 Noroeste 0 -- -- 52
2020-05-19 18:00:00 23 9 Noroeste 27 Norte 0 -- -- 51
2020-05-19 17:00:00 23.1 9 Norte 24 Noroeste 0 -- -- 50
2020-05-19 16:00:00 23.5 9 Noroeste 28 Noroeste 0 -- -- 50
2020-05-19 15:00:00 23.7 10 Nordeste 34 Noroeste 0 -- -- 48
2020-05-19 14:00:00 22.2 14 Norte 33 Noroeste 0 -- -- 52
2020-05-19 13:00:00 21.3 13 Noroeste 35 Noroeste 0 -- -- 52
2020-05-19 12:00:00 20.5 10 Noroeste 39 Noroeste 0 -- -- 54
2020-05-19 11:00:00 19.3 12 Noroeste 32 Noroeste 0 -- -- 59
2020-05-19 10:00:00 16 9 Oeste 16 Oeste 0 -- -- 70
2020-05-19 09:00:00 11.6 4 Noroeste 13 Oeste 0 -- -- 86
2020-05-19 08:00:00 8.6 3 Noroeste 9 Noroeste 0 -- -- 91
2020-05-19 07:00:00 8.4 5 Noroeste 13 Oeste 0 -- -- 90
2020-05-19 06:00:00 8.7 3 Noroeste 10 Oeste 0 -- -- 90
2020-05-19 05:00:00 9.4 4 Noroeste 15 Noroeste 0 -- -- 87
2020-05-19 04:00:00 10 5 Noroeste 13 Oeste 0 -- -- 85
2020-05-19 03:00:00 10.9 5 Oeste 13 Oeste 0 -- -- 81
2020-05-19 02:00:00 11.6 6 Oeste 28 Sudoeste 0 -- -- 77
2020-05-19 01:00:00 13.1 10 Oeste 23 Oeste 0 -- -- 69
2020-05-19 00:00:00 13.3 11 Oeste 27 Oeste 0 -- -- 72
2020-05-18 23:00:00 13.6 13 Oeste 31 Oeste 0 -- -- 73
2020-05-18 22:00:00 14.4 14 Oeste 35 Oeste 0 -- -- 70
2020-05-18 21:00:00 15.9 12 Oeste 26 Oeste 0 -- -- 66
2020-05-18 20:00:00 18.7 9 Noroeste 25 Noroeste 0 -- -- 60
2020-05-18 19:00:00 19.8 10 Noroeste 24 Noroeste 0 -- -- 57
2020-05-18 18:00:00 20.2 10 Norte 30 Norte 0 -- -- 53
2020-05-18 17:00:00 21.4 13 Noroeste 27 Noroeste 0 -- -- 46
2020-05-18 16:00:00 22.2 10 Noroeste 36 Noroeste 0 -- -- 42
2020-05-18 15:00:00 21.5 10 Norte 28 Noroeste 0 -- -- 48
2020-05-18 14:00:00 20.5 11 Noroeste 28 Noroeste 0 -- -- 53
2020-05-18 13:00:00 20.4 8 Norte 27 Norte 0 -- -- 53
2020-05-18 12:00:00 19.7 8 Oeste 36 Noroeste 0 -- -- 53
2020-05-18 11:00:00 18 12 Noroeste 36 Noroeste 0 -- -- 58
2020-05-18 10:00:00 14.6 5 Oeste 15 Oeste 0 -- -- 76
2020-05-18 09:00:00 10.6 4 Sudoeste 9 Oeste 0 -- -- 91
2020-05-18 08:00:00 7 0 Calma 10 Sudoeste 0 -- -- 95
2020-05-18 07:00:00 6.7 2 Norte 14 Noroeste 0 -- -- 94
2020-05-18 06:00:00 7 4 Oeste 11 Oeste 0 -- -- 93
2020-05-18 05:00:00 7.5 6 Noroeste 13 Oeste 0 -- -- 93
2020-05-18 04:00:00 7.8 4 Noroeste 18 Oeste 0 -- -- 91
2020-05-18 03:00:00 8.5 6 Oeste 19 Oeste 0 -- -- 87
2020-05-18 02:00:00 9.8 6 Oeste 16 Oeste 0 -- -- 81
2020-05-18 01:00:00 9.4 4 Noroeste 11 Noroeste 0 -- -- 85
2020-05-18 00:00:00 11 3 Noroeste 19 Oeste 0 -- -- 81
2020-05-17 23:00:00 11.8 8 Oeste 22 Sudoeste 0 -- -- 81
2020-05-17 22:00:00 12.6 9 Oeste 30 Sudoeste 0 -- -- 76
2020-05-17 21:00:00 14.3 12 Oeste 24 Oeste 0 -- -- 70
2020-05-17 20:00:00 17.5 7 Oeste 23 Norte 0 -- -- 62
2020-05-17 19:00:00 17.9 9 Norte 29 Noroeste 0 -- -- 60
2020-05-17 18:00:00 19.3 10 Norte 35 Norte 0 -- -- 57
2020-05-17 17:00:00 19.9 10 Noroeste 32 Norte 0 -- -- 55
2020-05-17 16:00:00 19.3 9 Norte 25 Norte 0 -- -- 53
2020-05-17 15:00:00 19.4 9 Noroeste 30 Oeste 0 -- -- 50
2020-05-17 14:00:00 18.6 9 Noroeste 30 Oeste 0 -- -- 57
2020-05-17 13:00:00 17.9 8 Noroeste 28 Norte 0 -- -- 64
2020-05-17 12:00:00 14.7 10 Oeste 23 Oeste 0 -- -- 74
2020-05-17 11:00:00 13.3 9 Noroeste 25 Noroeste 0 -- -- 78
2020-05-17 10:00:00 11.2 11 Oeste 21 Oeste 0 -- -- 82
2020-05-17 09:00:00 9.7 7 Oeste 18 Oeste 0 -- -- 87
2020-05-17 08:00:00 8.3 4 Oeste 10 Oeste 0 -- -- 91
2020-05-17 07:00:00 8.1 3 Oeste 8 Noroeste 0 -- -- 89
2020-05-17 06:00:00 9.1 4 Oeste 16 Sudoeste 0 -- -- 86
2020-05-17 05:00:00 9.5 3 Oeste 16 Sur 0 -- -- 85
2020-05-17 04:00:00 10.2 9 Oeste 21 Norte 0 -- -- 81
2020-05-17 03:00:00 10.3 4 Noroeste 28 Oeste 0 -- -- 81
2020-05-17 02:00:00 10.6 8 Oeste 28 Oeste 0 -- -- 83
2020-05-17 01:00:00 11 7 Oeste 16 Oeste 0 -- -- 82
2020-05-17 00:00:00 11.2 9 Oeste 23 Oeste 0 -- -- 82
2020-05-16 23:00:00 11.8 6 Oeste 20 Sudoeste 0 -- -- 82
2020-05-16 22:00:00 12 8 Noroeste 25 Noroeste 0 -- -- 81
2020-05-16 21:00:00 12.5 10 Noroeste 21 Oeste 0 -- -- 81
2020-05-16 20:00:00 14.3 8 Noroeste 23 Oeste 0 -- -- 77
2020-05-16 19:00:00 14.8 10 Oeste 27 Oeste 0 -- -- 76
2020-05-16 18:00:00 15.9 12 Oeste 33 Oeste 0 -- -- 74
2020-05-16 17:00:00 16.3 9 Oeste 28 Sudoeste 0 -- -- 73
2020-05-16 16:00:00 15.7 8 Noroeste 26 Oeste 0 -- -- 74
2020-05-16 15:00:00 15.8 11 Noroeste 26 Oeste 0 -- -- 77
2020-05-16 14:00:00 15.5 7 Oeste 27 Noroeste 0 -- -- 75
2020-05-16 13:00:00 14.9 11 Oeste 36 Oeste 0 -- -- 77
2020-05-16 12:00:00 14 10 Oeste 29 Sudoeste 0 -- -- 83
2020-05-16 11:00:00 13.3 11 Oeste 26 Oeste 0 -- -- 81
2020-05-16 10:00:00 13 10 Oeste 25 Oeste 0 -- -- 84
2020-05-16 09:00:00 11.5 9 Oeste 25 Oeste 0 -- -- 90
2020-05-16 08:00:00 10.2 9 Oeste 22 Sudoeste 0 -- -- 94
2020-05-16 07:00:00 10 7 Oeste 19 Sudoeste 0 -- -- 93
2020-05-16 06:00:00 10.6 6 Oeste 16 Noroeste 0 -- -- 88
2020-05-16 05:00:00 10.7 8 Oeste 26 Oeste 0 -- -- 86
2020-05-16 04:00:00 10.6 10 Oeste 26 Sudoeste 0 -- -- 84
2020-05-16 03:00:00 10.7 10 Oeste 27 Oeste 0 -- -- 83
2020-05-16 02:00:00 10.7 10 Oeste 24 Oeste 0 -- -- 83
2020-05-16 01:00:00 10.6 9 Oeste 27 Oeste 0 -- -- 83
2020-05-16 00:00:00 10.5 10 Oeste 24 Sudoeste 0 -- -- 82
2020-05-15 23:00:00 10.4 9 Oeste 33 Oeste 0 -- -- 81
2020-05-15 22:00:00 10.4 14 Oeste 26 Oeste 0 -- -- 82
2020-05-15 21:00:00 11.1 8 Oeste 26 Oeste 0 -- -- 79
2020-05-15 20:00:00 11.5 8 Oeste 23 Oeste 0 -- -- 82
2020-05-15 19:00:00 11.4 5 Noroeste 19 Noroeste 0 -- -- 83
2020-05-15 18:00:00 11.5 6 Oeste 17 Oeste 0 -- -- 84
2020-05-15 17:00:00 11.8 6 Noroeste 25 Noroeste 0 -- -- 84
2020-05-15 16:00:00 11.9 8 Noroeste 25 Oeste 0 -- -- 85
2020-05-15 15:00:00 12.5 12 Oeste 24 Sudoeste 0 -- -- 82
2020-05-15 14:00:00 12 9 Noroeste 28 Sudoeste 0 -- -- 85
2020-05-15 13:00:00 11.9 8 Noroeste 25 Sudoeste 0 -- -- 84
2020-05-15 12:00:00 11.8 5 Noroeste 19 Noroeste 0 -- -- 86
2020-05-15 11:00:00 11.8 7 Oeste 18 Oeste 0 -- -- 87
2020-05-15 10:00:00 11.6 3 Noroeste 19 Norte 0 -- -- 92
2020-05-15 09:00:00 10.9 5 Oeste 15 Oeste 0 -- -- 94
2020-05-15 08:00:00 10.8 6 Oeste 18 Oeste 0 -- -- 92
2020-05-15 07:00:00 10.7 6 Noroeste 15 Noroeste 0 -- -- 91
2020-05-15 06:00:00 10.8 5 Oeste 12 Oeste 0 -- -- 88
2020-05-15 05:00:00 10.9 4 Noroeste 15 Oeste 0 -- -- 87
2020-05-15 04:00:00 11 6 Noroeste 16 Norte 0 -- -- 86
2020-05-15 03:00:00 11 5 Noroeste 22 Noroeste 0 -- -- 85
2020-05-15 02:00:00 11.1 3 Norte 23 Noroeste 0 -- -- 84
2020-05-15 01:00:00 11.1 10 Noroeste 29 Oeste 0 -- -- 87
2020-05-15 00:00:00 11.2 11 Noroeste 29 Oeste 0 -- -- 86
2020-05-14 23:00:00 11.2 6 Norte 31 Oeste 0 -- -- 89
2020-05-14 22:00:00 11.3 6 Noroeste 22 Oeste 0 -- -- 88
2020-05-14 21:00:00 11.5 6 Oeste 20 Oeste 0 -- -- 86
2020-05-14 20:00:00 11.9 7 Oeste 19 Noroeste 0 -- -- 85
2020-05-14 19:00:00 12.3 5 Oeste 31 Oeste 0 -- -- 85
2020-05-14 18:00:00 12.3 15 Noroeste 31 Noroeste 0 -- -- 86
2020-05-14 17:00:00 13.5 12 Noroeste 27 Noroeste 0 -- -- 83
2020-05-14 16:00:00 13.1 10 Noroeste 23 Noroeste 0 -- -- 85
2020-05-14 15:00:00 13.7 8 Oeste 19 Oeste 0 -- -- 84
2020-05-14 14:00:00 13.2 10 Oeste 28 Oeste 0 -- -- 85
2020-05-14 13:00:00 14.2 4 Noroeste 18 Nordeste 0 -- -- 82
2020-05-14 12:00:00 14.2 5 Noroeste 14 Norte 0 -- -- 80
2020-05-14 11:00:00 13.9 4 Nordeste 14 Este 0 -- -- 80
2020-05-14 10:00:00 13.7 3 Noroeste 10 Oeste 0 -- -- 86
2020-05-14 09:00:00 11.9 2 Oeste 9 Oeste 0 -- -- 91
2020-05-14 08:00:00 11.6 3 Noroeste 9 Oeste 0 -- -- 91
2020-05-14 07:00:00 11 3 Noroeste 9 Noroeste 0 -- -- 93
2020-05-14 06:00:00 10.7 3 Oeste 10 Sudoeste 0 -- -- 95
2020-05-14 05:00:00 10.8 4 Oeste 10 Oeste 0 -- -- 95
2020-05-14 04:00:00 11.1 3 Sudoeste 8 Norte 0 -- -- 95
2020-05-14 03:00:00 10.7 4 Oeste 10 Noroeste 0 -- -- 95
2020-05-14 02:00:00 10.6 2 Sudoeste 16 Norte 0 -- -- 94
2020-05-14 01:00:00 11.1 0 Calma 11 Oeste 0 -- -- 92
2020-05-14 00:00:00 12.3 6 Norte 14 Norte 0 -- -- 88
2020-05-13 23:00:00 12.7 2 Oeste 13 Norte 0 -- -- 86
2020-05-13 22:00:00 13 8 Norte 14 Norte 0 -- -- 85
2020-05-13 21:00:00 13.6 5 Noroeste 15 Noroeste 0 -- -- 82
2020-05-13 20:00:00 15.1 9 Norte 19 Norte 0 -- -- 76
2020-05-13 19:00:00 16.9 4 Norte 12 Norte 0 -- -- 72
2020-05-13 18:00:00 17.5 8 Norte 15 Oeste 0 -- -- 70
2020-05-13 17:00:00 16.6 7 Noroeste 14 Noroeste 0 -- -- 75
2020-05-13 16:00:00 16.4 6 Oeste 17 Noroeste 0 -- -- 73
2020-05-13 15:00:00 17.7 6 Noroeste 14 Oeste 0 -- -- 75
2020-05-13 14:00:00 15.7 6 Oeste 15 Sudoeste 0 -- -- 79
2020-05-13 13:00:00 13.7 7 Oeste 14 Oeste 0 -- -- 86
2020-05-13 12:00:00 12.9 5 Oeste 11 Noroeste 0 -- -- 91
2020-05-13 11:00:00 12.3 4 Oeste 14 Sudoeste 0.2 -- -- 93
2020-05-13 10:00:00 12 4 Oeste 16 Oeste 0.2 -- -- 96
2020-05-13 09:00:00 11.2 2 Noroeste 5 Oeste 0.4 -- -- 97
2020-05-13 08:00:00 10.4 0 Calma 4 Oeste 0.6 -- -- 98
2020-05-13 07:00:00 10 0 Calma 4 Este 0.8 -- -- 97
2020-05-13 06:00:00 10 0 Calma 16 Oeste 3.8 -- -- 97
2020-05-13 05:00:00 10.1 5 Sudoeste 13 Noroeste 6.2 -- -- 97
2020-05-13 04:00:00 10.3 3 Noroeste 14 Noroeste 4 -- -- 97
2020-05-13 03:00:00 10.4 2 Norte 8 Norte 7.2 -- -- 96
2020-05-13 02:00:00 10.6 3 Norte 5 Norte 3.6 -- -- 96
2020-05-13 01:00:00 10.9 0 Calma 11 Norte 0.6 -- -- 96
2020-05-13 00:00:00 11.1 0 Calma 9 Norte 1.2 -- -- 95
2020-05-12 23:00:00 11.3 0 Calma 6 Norte 1.2 -- -- 95
2020-05-12 22:00:00 11.6 0 Calma 19 Nordeste 0.6 -- -- 93
2020-05-12 21:00:00 11.8 9 Norte 24 Noroeste 0 -- -- 90
2020-05-12 20:00:00 13.3 6 Norte 19 Norte 0 -- -- 84
2020-05-12 19:00:00 14.7 11 Norte 25 Norte 0 -- -- 80
2020-05-12 18:00:00 16.8 10 Norte 23 Noroeste 0 -- -- 73
2020-05-12 17:00:00 19 6 Norte 19 Norte 0 -- -- 67
2020-05-12 16:00:00 19.2 6 Norte 12 Norte 0 -- -- 68
2020-05-12 15:00:00 19 5 Sudoeste 9 Oeste 0 -- -- 66
2020-05-12 14:00:00 18 2 Noroeste 18 Norte 0 -- -- 67
2020-05-12 13:00:00 16 10 Norte 18 Norte 0 -- -- 75
2020-05-12 12:00:00 15.3 8 Norte 16 Nordeste 0 -- -- 73
2020-05-12 11:00:00 13.7 5 Noroeste 9 Noroeste 0 -- -- 82
2020-05-12 10:00:00 12 3 Noroeste 6 Sur 0 -- -- 87
2020-05-12 09:00:00 10.7 2 Norte 4 Norte 0 -- -- 92
2020-05-12 08:00:00 10 3 Norte 12 Oeste 0 -- -- 94
2020-05-12 07:00:00 10.2 5 Oeste 15 Norte 0 -- -- 89
2020-05-12 06:00:00 9.9 5 Norte 16 Norte 0 -- -- 92
2020-05-12 05:00:00 9.9 3 Noroeste 8 Norte 0 -- -- 90
2020-05-12 04:00:00 10.9 3 Noroeste 14 Norte 0 -- -- 87
2020-05-12 03:00:00 11 8 Norte 21 Norte 0 -- -- 87
2020-05-12 02:00:00 11.3 5 Norte 16 Noroeste 0 -- -- 88
2020-05-12 01:00:00 11.5 5 Noroeste 19 Noroeste 0 -- -- 89
2020-05-12 00:00:00 11.7 9 Noroeste 23 Norte 0 -- -- 89
2020-05-11 23:00:00 12.3 6 Oeste 18 Sudoeste 0 -- -- 88
2020-05-11 22:00:00 12.8 8 Oeste 27 Oeste 0 -- -- 86
2020-05-11 21:00:00 13.5 13 Noroeste 28 Oeste 0 -- -- 82
2020-05-11 20:00:00 14.4 9 Noroeste 26 Oeste 0 -- -- 80
2020-05-11 19:00:00 15.7 10 Noroeste 24 Norte 0 -- -- 74
2020-05-11 18:00:00 16.7 17 Norte 33 Norte 0 -- -- 70
2020-05-11 17:00:00 18.3 13 Noroeste 37 Oeste 0 -- -- 65
2020-05-11 16:00:00 17.1 15 Norte 28 Norte 0 -- -- 70
2020-05-11 15:00:00 19.2 6 Noroeste 22 Norte 0.2 -- -- 68
2020-05-11 14:00:00 17.6 12 Noroeste 24 Noroeste 0 -- -- 65
2020-05-11 13:00:00 15.9 7 Noroeste 18 Oeste 0 -- -- 71
2020-05-11 12:00:00 15 4 Noroeste 14 Noroeste 0 -- -- 77
2020-05-11 11:00:00 13.8 5 Noroeste 12 Noroeste 0 -- -- 82
2020-05-11 10:00:00 12.7 5 Oeste 15 Oeste 0 -- -- 83
2020-05-11 09:00:00 12.1 6 Oeste 18 Oeste 0 -- -- 84
2020-05-11 08:00:00 11.7 6 Noroeste 15 Noroeste 0 -- -- 89
2020-05-11 07:00:00 11.2 3 Oeste 14 Oeste 0 -- -- 92
2020-05-11 06:00:00 11.3 5 Noroeste 17 Noroeste 0 -- -- 91
2020-05-11 05:00:00 11.4 8 Noroeste 16 Norte 0 -- -- 91
2020-05-11 04:00:00 11.3 11 Noroeste 20 Noroeste 0 -- -- 92
2020-05-11 03:00:00 11.1 5 Noroeste 14 Noroeste 0.4 -- -- 95
2020-05-11 02:00:00 11.1 4 Noroeste 16 Noroeste 0.4 -- -- 95
2020-05-11 01:00:00 11.3 6 Noroeste 19 Noroeste 0.8 -- -- 95
2020-05-11 00:00:00 11.6 5 Noroeste 18 Oeste 1.6 -- -- 95
2020-05-10 23:00:00 11.7 9 Noroeste 18 Oeste 1.2 -- -- 95
2020-05-10 22:00:00 11.9 7 Noroeste 18 Noroeste 0.8 -- -- 95
2020-05-10 21:00:00 12 9 Oeste 23 Oeste 1.8 -- -- 94
2020-05-10 20:00:00 12.5 8 Oeste 19 Noroeste 1.8 -- -- 94
2020-05-10 19:00:00 13 8 Noroeste 20 Noroeste 0.6 -- -- 93
2020-05-10 18:00:00 13.3 8 Noroeste 19 Oeste 0.2 -- -- 92
2020-05-10 17:00:00 13.2 6 Noroeste 15 Noroeste 3.4 -- -- 93
2020-05-10 16:00:00 14.6 8 Noroeste 21 Oeste 0.8 -- -- 84
2020-05-10 15:00:00 16.6 10 Noroeste 21 Noroeste 0 -- -- 75
2020-05-10 14:00:00 15.6 6 Noroeste 14 Norte 0 -- -- 81
2020-05-10 13:00:00 14.5 4 Noroeste 17 Noroeste 0 -- -- 87
2020-05-10 12:00:00 14.3 5 Oeste 15 Oeste 0 -- -- 86
2020-05-10 11:00:00 13.2 4 Oeste 13 Oeste 0 -- -- 93
2020-05-10 10:00:00 12.2 5 Oeste 15 Oeste 0 -- -- 92
2020-05-10 09:00:00 12 3 Noroeste 28 Noroeste 1.6 -- -- 91
2020-05-10 08:00:00 15.3 3 Norte 7 Norte 5.6 -- -- 91
2020-05-10 07:00:00 16 3 Sudeste 18 Sudeste 0 -- -- 86
2020-05-10 06:00:00 15 2 Norte 5 Norte 0 -- -- 89
2020-05-10 05:00:00 15.4 2 Nordeste 10 Este 0 -- -- 85
2020-05-10 04:00:00 15.4 3 Norte 9 Norte 0 -- -- 84
2020-05-10 03:00:00 15.7 3 Nordeste 10 Nordeste 0 -- -- 82
2020-05-10 02:00:00 15.4 5 Norte 13 Norte 0 -- -- 84
2020-05-10 01:00:00 15.4 6 Nordeste 12 Norte 0 -- -- 85
2020-05-10 00:00:00 16.3 5 Norte 18 Sudeste 0 -- -- 79
2020-05-09 23:00:00 17.4 2 Noroeste 15 Este 0 -- -- 75
2020-05-09 22:00:00 18.8 4 Norte 25 Sudeste 0 -- -- 68
2020-05-09 21:00:00 20.5 9 Sur 31 Sur 0 -- -- 57
2020-05-09 20:00:00 23.4 9 Sudeste 30 Este 0 -- -- 50
2020-05-09 19:00:00 23.8 11 Sudeste 35 Sudeste 0 -- -- 48
2020-05-09 18:00:00 26.5 10 Sudeste 27 Sudeste 0 -- -- 48
2020-05-09 17:00:00 25.8 5 Sudeste 24 Este 0 -- -- 49
2020-05-09 16:00:00 25.2 9 Sudeste 21 Sudeste 0 -- -- 48
2020-05-09 15:00:00 25.4 13 Sudeste 30 Sudeste 0 -- -- 47
2020-05-09 14:00:00 24 17 Sudeste 35 Sudeste 0 -- -- 47
2020-05-09 13:00:00 22.7 13 Sudeste 26 Sudeste 0 -- -- 50
2020-05-09 12:00:00 20.6 9 Este 18 Sudeste 0 -- -- 57
2020-05-09 11:00:00 19.7 5 Sur 22 Este 0 -- -- 61
2020-05-09 10:00:00 17.1 8 Este 15 Este 0 -- -- 70
2020-05-09 09:00:00 14.3 6 Nordeste 19 Nordeste 0 -- -- 79
2020-05-09 08:00:00 12.1 3 Este 8 Norte 0 -- -- 93
2020-05-09 07:00:00 11.8 3 Norte 15 Este 0 -- -- 90
2020-05-09 06:00:00 14 10 Este 41 Sudeste 1.8 -- -- 80
2020-05-09 05:00:00 15.1 19 Sudeste 44 Sur 1 -- -- 75
2020-05-09 04:00:00 15.2 6 Este 14 Nordeste 0 -- -- 84
2020-05-09 03:00:00 14.1 4 Nordeste 12 Norte 0 -- -- 87
2020-05-09 02:00:00 14.5 3 Nordeste 10 Norte 0 -- -- 87
2020-05-09 01:00:00 15.3 0 Calma 10 Norte 0 -- -- 88
2020-05-09 00:00:00 16.3 3 Norte 30 Este 0.2 -- -- 83
2020-05-08 23:00:00 18.4 5 Sur 32 Sudeste 0.4 -- -- 68
2020-05-08 22:00:00 18.2 3 Norte 6 Norte 0 -- -- 64
2020-05-08 21:00:00 20 3 Noroeste 18 Sudeste 0 -- -- 63
2020-05-08 20:00:00 24.1 10 Sudeste 23 Sudeste 0 -- -- 36
2020-05-08 19:00:00 23.7 7 Sudeste 25 Sudeste 0 -- -- 42
2020-05-08 18:00:00 24.8 14 Sur 31 Sudeste 0 -- -- 40
2020-05-08 17:00:00 27.1 14 Sur 31 Sur 0 -- -- 43
2020-05-08 16:00:00 27.9 15 Sur 33 Sudeste 0 -- -- 39
2020-05-08 15:00:00 26.4 16 Sur 39 Sudeste 0 -- -- 47
2020-05-08 14:00:00 24 13 Sudeste 27 Sudeste 0 -- -- 55
2020-05-08 13:00:00 19.4 6 Sudeste 28 Sudeste 0 -- -- 71
2020-05-08 12:00:00 19.2 10 Sudeste 40 Sudeste 0 -- -- 66
2020-05-08 11:00:00 23.1 21 Sudeste 47 Sur 0 -- -- 49
2020-05-08 10:00:00 20.6 17 Sudeste 35 Sudeste 0 -- -- 54
2020-05-08 09:00:00 18.2 6 Sudeste 26 Sudeste 0 -- -- 59
2020-05-08 08:00:00 15.7 4 Norte 16 Este 0 -- -- 72
2020-05-08 07:00:00 15.9 3 Nordeste 13 Este 0 -- -- 68
2020-05-08 06:00:00 16.4 3 Nordeste 13 Este 0 -- -- 64
2020-05-08 05:00:00 18.4 3 Este 22 Este 0 -- -- 60
2020-05-08 04:00:00 19.9 8 Este 23 Este 0 -- -- 52
2020-05-08 03:00:00 19.1 3 Nordeste 24 Sudeste 0 -- -- 63
2020-05-08 02:00:00 21.1 12 Sudeste 32 Este 0 -- -- 54
2020-05-08 01:00:00 20.2 9 Sudeste 22 Sudeste 0 -- -- 60
2020-05-08 00:00:00 20.7 5 Sur 16 Sudeste 0 -- -- 57
2020-05-07 23:00:00 22.5 4 Sur 35 Sudeste 0 -- -- 54
2020-05-07 22:00:00 22.6 12 Sudeste 26 Sudeste 0 -- -- 55
2020-05-07 21:00:00 21.9 0 Calma 13 Sudeste 0 -- -- 63
2020-05-07 20:00:00 24.9 5 Sudeste 22 Sudeste 0 -- -- 52
2020-05-07 19:00:00 26.4 8 Este 23 Sudeste 0 -- -- 44
2020-05-07 18:00:00 27.4 10 Sudeste 25 Nordeste 0 -- -- 48
2020-05-07 17:00:00 27.8 14 Sur 29 Sudeste 0 -- -- 48
2020-05-07 16:00:00 27.1 17 Sudeste 36 Sur 0 -- -- 46
2020-05-07 15:00:00 26.8 13 Sudeste 31 Sudeste 0 -- -- 48
2020-05-07 14:00:00 26 12 Sudeste 27 Sudeste 0 -- -- 54
2020-05-07 13:00:00 23.9 11 Este 22 Sudeste 0 -- -- 61
2020-05-07 12:00:00 23.8 8 Sudeste 17 Este 0 -- -- 57
2020-05-07 11:00:00 21.5 9 Este 18 Este 0 -- -- 64
2020-05-07 10:00:00 16.5 2 Noroeste 6 Nordeste 0 -- -- 87
2020-05-07 09:00:00 12.3 0 Calma 8 Norte 0 -- -- 97
2020-05-07 08:00:00 10.6 0 Calma 2 Noroeste 0 -- -- 98
2020-05-07 07:00:00 10.3 0 Calma 4 Sur 0 -- -- 97
2020-05-07 06:00:00 10.3 0 Calma 3 Sur 0 -- -- 97
2020-05-07 05:00:00 10.4 0 Calma 3 Norte 0 -- -- 96
2020-05-07 04:00:00 11 0 Calma 3 Norte 0 -- -- 95
2020-05-07 03:00:00 11.6 2 Noroeste 3 Norte 0 -- -- 95
2020-05-07 02:00:00 12.4 0 Calma 2 Noroeste 0 -- -- 93
2020-05-07 01:00:00 13.8 0 Calma 2 Nordeste 0 -- -- 91
2020-05-07 00:00:00 15.1 0 Calma 5 Oeste 0 -- -- 86
2020-05-06 23:00:00 17.9 0 Calma 20 Norte 0 -- -- 75
2020-05-06 22:00:00 19.6 6 Norte 18 Norte 0 -- -- 70
2020-05-06 21:00:00 20.4 6 Norte 24 Noroeste 0 -- -- 71
2020-05-06 20:00:00 22.3 9 Norte 26 Norte 0 -- -- 65
2020-05-06 19:00:00 24 9 Norte 22 Nordeste 0 -- -- 58
2020-05-06 18:00:00 23.7 10 Norte 23 Noroeste 0 -- -- 63
2020-05-06 17:00:00 25.2 8 Norte 25 Nordeste 0 -- -- 54
2020-05-06 16:00:00 26.5 5 Norte 15 Norte 0 -- -- 51
2020-05-06 15:00:00 26.6 4 Oeste 11 Noroeste 0 -- -- 46
2020-05-06 14:00:00 26 4 Este 11 Sudeste 0 -- -- 44
2020-05-06 13:00:00 24.5 4 Norte 13 Sur 0 -- -- 48
2020-05-06 12:00:00 22.5 5 Sudoeste 11 Sur 0 -- -- 56
2020-05-06 11:00:00 18.5 2 Noroeste 9 Oeste 0 -- -- 65
2020-05-06 10:00:00 14.5 2 Norte 5 Nordeste 0 -- -- 84
2020-05-06 09:00:00 10.4 2 Norte 6 Nordeste 0 -- -- 97
2020-05-06 08:00:00 8.4 0 Calma 3 Noroeste 0 -- -- 98
2020-05-06 07:00:00 8.4 0 Calma 2 Norte 0 -- -- 96
2020-05-06 06:00:00 8.9 0 Calma 3 Norte 0 -- -- 96
2020-05-06 05:00:00 9.3 0 Calma 2 Noroeste 0 -- -- 96
2020-05-06 04:00:00 10.1 0 Calma 2 Sur 0 -- -- 95
2020-05-06 03:00:00 11 0 Calma 4 Sur 0 -- -- 94
2020-05-06 02:00:00 11.6 0 Calma 4 Noroeste 0 -- -- 93
2020-05-06 01:00:00 12.5 0 Calma 6 Este 0 -- -- 92
2020-05-06 00:00:00 13.8 0 Calma 5 Nordeste 0 -- -- 87
2020-05-05 23:00:00 15.8 3 Noroeste 11 Oeste 0 -- -- 80
2020-05-05 22:00:00 18.1 5 Noroeste 18 Noroeste 0 -- -- 73
2020-05-05 21:00:00 20.1 10 Norte 24 Norte 0 -- -- 65
2020-05-05 20:00:00 21.7 12 Norte 27 Norte 0 -- -- 59
2020-05-05 19:00:00 24.8 11 Norte 23 Noroeste 0 -- -- 51
2020-05-05 18:00:00 27.2 3 Sudoeste 10 Sudeste 0 -- -- 34
2020-05-05 17:00:00 27.3 6 Sur 14 Sudeste 0 -- -- 38
2020-05-05 16:00:00 26.2 6 Este 14 Sudeste 0 -- -- 42
2020-05-05 15:00:00 25.2 4 Sudoeste 10 Sur 0 -- -- 47
2020-05-05 14:00:00 24.3 4 Oeste 13 Sudoeste 0 -- -- 51
2020-05-05 13:00:00 23.9 3 Sudoeste 13 Sur 0 -- -- 52
2020-05-05 12:00:00 22.1 6 Sudoeste 13 Oeste 0 -- -- 49
2020-05-05 11:00:00 21.1 3 Sur 9 Sudoeste 0 -- -- 57
2020-05-05 10:00:00 17.9 3 Sur 5 Sur 0 -- -- 71
2020-05-05 09:00:00 14.2 3 Norte 9 Nordeste 0 -- -- 90
2020-05-05 08:00:00 12.5 0 Calma 8 Norte 0 -- -- 95
2020-05-05 07:00:00 11.8 0 Calma 4 Nordeste 0 -- -- 95
2020-05-05 06:00:00 12.3 2 Norte 4 Norte 0 -- -- 93
2020-05-05 05:00:00 13.3 0 Calma 4 Sudeste 0 -- -- 91
2020-05-05 04:00:00 15 0 Calma 12 Nordeste 0 -- -- 84
2020-05-05 03:00:00 16.1 2 Este 10 Nordeste 0 -- -- 82
2020-05-05 02:00:00 16.7 3 Noroeste 18 Noroeste 0 -- -- 82
2020-05-05 01:00:00 18 6 Norte 24 Norte 0 -- -- 79
2020-05-05 00:00:00 19.7 6 Norte 30 Sudoeste 0 -- -- 84
2020-05-04 23:00:00 21.6 10 Sur 23 Noroeste 1.6 -- -- 70
2020-05-04 22:00:00 23 8 Sur 23 Sudeste 0.2 -- -- 62
2020-05-04 21:00:00 22.9 3 Oeste 14 Este 0 -- -- 61
2020-05-04 20:00:00 26.5 12 Sudeste 35 Sudeste 0 -- -- 49
2020-05-04 19:00:00 27.7 19 Sudeste 34 Sur 0 -- -- 47
2020-05-04 18:00:00 27.6 10 Sudeste 27 Sur 0 -- -- 49
2020-05-04 17:00:00 27.7 10 Sudeste 31 Sudeste 0 -- -- 50
2020-05-04 16:00:00 27 13 Sur 31 Sur 0 -- -- 51
2020-05-04 15:00:00 29.2 15 Sudeste 35 Sudeste 0 -- -- 49
2020-05-04 14:00:00 28.2 16 Sudeste 37 Sudeste 0 -- -- 49
2020-05-04 13:00:00 26.7 6 Este 21 Este 0 -- -- 54
2020-05-04 12:00:00 24.8 13 Este 28 Sudeste 0 -- -- 57
2020-05-04 11:00:00 23.7 6 Este 15 Sudeste 0 -- -- 56
2020-05-04 10:00:00 20.7 8 Este 17 Nordeste 0 -- -- 66
2020-05-04 09:00:00 14.6 3 Norte 8 Norte 0 -- -- 89
2020-05-04 08:00:00 12.3 4 Norte 12 Norte 0 -- -- 92
2020-05-04 07:00:00 12.5 3 Norte 12 Norte 0 -- -- 90
2020-05-04 06:00:00 12.8 5 Noroeste 10 Norte 0 -- -- 91
2020-05-04 05:00:00 13.4 3 Norte 9 Norte 0 -- -- 92
2020-05-04 04:00:00 13.2 4 Norte 7 Norte 0 -- -- 93
2020-05-04 03:00:00 13.9 4 Norte 12 Norte 0 -- -- 91
2020-05-04 02:00:00 15.1 7 Norte 15 Norte 0 -- -- 88
2020-05-04 01:00:00 15.7 7 Norte 13 Norte 0 -- -- 88
2020-05-04 00:00:00 15.7 2 Sudeste 10 Norte 0 -- -- 88
2020-05-03 23:00:00 16.2 0 Calma 7 Norte 0 -- -- 86
2020-05-03 22:00:00 17.5 0 Calma 5 Norte 0 -- -- 80
2020-05-03 21:00:00 19.9 4 Norte 13 Sudeste 0 -- -- 74
2020-05-03 20:00:00 26.9 6 Sudeste 16 Este 0 -- -- 53
2020-05-03 19:00:00 27.6 6 Este 15 Este 0 -- -- 51
2020-05-03 18:00:00 28.1 8 Sudeste 19 Este 0 -- -- 49
2020-05-03 17:00:00 27 10 Este 19 Sudeste 0 -- -- 44
2020-05-03 16:00:00 26.8 9 Este 18 Este 0 -- -- 48
2020-05-03 15:00:00 26.2 7 Este 21 Sudeste 0 -- -- 45
2020-05-03 14:00:00 25.3 9 Este 15 Este 0 -- -- 45
2020-05-03 13:00:00 24.2 8 Este 16 Sudeste 0 -- -- 50
2020-05-03 12:00:00 22 4 Sur 8 Sur 0 -- -- 63
2020-05-03 11:00:00 18.2 0 Calma 4 Sudeste 0 -- -- 71
2020-05-03 10:00:00 14.4 0 Calma 3 Sudeste 0 -- -- 87
2020-05-03 09:00:00 10.6 0 Calma 6 Nordeste 0 -- -- 98
2020-05-03 08:00:00 9 3 Norte 6 Norte 0 -- -- 98
2020-05-03 07:00:00 9.2 3 Norte 7 Norte 0 -- -- 97
2020-05-03 06:00:00 9 0 Calma 2 Noroeste 0 -- -- 97
2020-05-03 05:00:00 9.2 0 Calma 5 Nordeste 0 -- -- 96
2020-05-03 04:00:00 9.7 0 Calma 4 Norte 0 -- -- 95
2020-05-03 03:00:00 10.4 0 Calma 4 Norte 0 -- -- 93
2020-05-03 02:00:00 11.4 0 Calma 5 Nordeste 0 -- -- 91
2020-05-03 01:00:00 12.9 2 Nordeste 12 Norte 0 -- -- 88
2020-05-03 00:00:00 14.2 3 Oeste 8 Oeste 0 -- -- 83
2020-05-02 23:00:00 15.1 4 Sudoeste 13 Noroeste 0 -- -- 78
2020-05-02 22:00:00 16.5 8 Noroeste 26 Norte 0 -- -- 71
2020-05-02 21:00:00 17.7 12 Norte 36 Norte 0 -- -- 66
2020-05-02 20:00:00 18 12 Norte 31 Nordeste 0 -- -- 71
2020-05-02 19:00:00 19.5 11 Norte 32 Norte 0 -- -- 69
2020-05-02 18:00:00 22.7 10 Norte 25 Norte 0 -- -- 64
2020-05-02 17:00:00 22.9 4 Noroeste 16 Noroeste 0 -- -- 66
2020-05-02 16:00:00 23.5 9 Noroeste 20 Oeste 0 -- -- 59
2020-05-02 15:00:00 23.3 9 Oeste 31 Noroeste 0 -- -- 57
2020-05-02 14:00:00 22.5 10 Oeste 19 Sur 0 -- -- 59
2020-05-02 13:00:00 23.3 14 Sudeste 23 Sudeste 0 -- -- 66
2020-05-02 12:00:00 21.9 9 Sudeste 14 Sudeste 0 -- -- 73
2020-05-02 11:00:00 19.4 6 Sur 13 Sudoeste 0 -- -- 78
2020-05-02 10:00:00 16.6 3 Este 5 Este 0 -- -- 96
2020-05-02 09:00:00 14 2 Sur 5 Sur 0 -- -- 99
2020-05-02 08:00:00 13.2 3 Sur 4 Sudeste 0 -- -- 99
2020-05-02 07:00:00 12.8 0 Calma 3 Sur 0 -- -- 98
2020-05-02 06:00:00 12.8 0 Calma 3 Sudeste 0 -- -- 98
2020-05-02 05:00:00 13.3 0 Calma 3 Oeste 0 -- -- 97
2020-05-02 04:00:00 14.1 0 Calma 4 Sudeste 0 -- -- 97
2020-05-02 03:00:00 14.4 0 Calma 3 Noroeste 0 -- -- 98
2020-05-02 02:00:00 14.4 0 Calma 4 Sur 0.2 -- -- 97
2020-05-02 01:00:00 14.6 0 Calma 4 Sur 3.4 -- -- 97
2020-05-02 00:00:00 14.7 2 Sudeste 5 Sur 2.2 -- -- 96
2020-05-01 23:00:00 14.9 0 Calma 4 Este 0.4 -- -- 95
2020-05-01 22:00:00 15.1 3 Noroeste 9 Norte 0.6 -- -- 93
2020-05-01 21:00:00 15.4 2 Noroeste 18 Norte 0 -- -- 92
2020-05-01 20:00:00 15.9 8 Norte 31 Norte 0.6 -- -- 87
2020-05-01 19:00:00 17.3 10 Norte 32 Noroeste 0.4 -- -- 84
2020-05-01 18:00:00 20.6 11 Norte 22 Nordeste 0 -- -- 74
2020-05-01 17:00:00 22.5 8 Sudoeste 18 Oeste 0 -- -- 70
2020-05-01 16:00:00 19.5 9 Noroeste 29 Noroeste 0.6 -- -- 76
2020-05-01 15:00:00 21.4 6 Sudoeste 30 Oeste 0 -- -- 62
2020-05-01 14:00:00 20.1 6 Oeste 28 Noroeste 0 -- -- 65
2020-05-01 13:00:00 18.1 9 Oeste 32 Oeste 0 -- -- 72
2020-05-01 12:00:00 17.4 10 Oeste 32 Sur 0 -- -- 72
2020-05-01 11:00:00 17 6 Sudoeste 21 Sudoeste 0 -- -- 73
2020-05-01 10:00:00 17.1 4 Sur 15 Sur 0 -- -- 72
2020-05-01 09:00:00 16.4 8 Sur 18 Sudeste 0 -- -- 74
2020-05-01 08:00:00 14.8 3 Sudoeste 16 Sudeste 0 -- -- 79
2020-05-01 07:00:00 14.6 8 Sudeste 14 Sudeste 0 -- -- 78
2020-05-01 06:00:00 14.4 4 Sur 11 Sur 0 -- -- 78
2020-05-01 05:00:00 14.5 3 Este 10 Este 0 -- -- 76
2020-05-01 04:00:00 14.6 5 Sudeste 13 Sudeste 0 -- -- 73
2020-05-01 03:00:00 14.6 6 Sur 12 Sudoeste 0 -- -- 73
2020-05-01 02:00:00 15.4 4 Este 21 Sudeste 0 -- -- 68
2020-05-01 01:00:00 15.5 7 Sudeste 15 Sudoeste 0 -- -- 66
2020-05-01 00:00:00 15.8 5 Noroeste 25 Oeste 0 -- -- 64
2020-04-30 23:00:00 15.9 3 Sur 15 Sur 0 -- -- 65
2020-04-30 22:00:00 15.7 3 Noroeste 13 Sudoeste 0 -- -- 64
2020-04-30 21:00:00 16.8 2 Nordeste 12 Oeste 0 -- -- 63
2020-04-30 20:00:00 17.7 7 Oeste 26 Oeste 0 -- -- 57
2020-04-30 19:00:00 17.9 8 Oeste 28 Oeste 0 -- -- 57
2020-04-30 18:00:00 18.9 10 Oeste 24 Sudoeste 0 -- -- 54
2020-04-30 17:00:00 18.4 9 Oeste 24 Oeste 0 -- -- 57
2020-04-30 16:00:00 19.1 6 Oeste 24 Oeste 0 -- -- 53
2020-04-30 15:00:00 18.6 12 Oeste 36 Oeste 0 -- -- 52
2020-04-30 14:00:00 17.5 12 Oeste 32 Oeste 0 -- -- 57
2020-04-30 13:00:00 16.1 14 Oeste 30 Oeste 0 -- -- 61
2020-04-30 12:00:00 14.6 10 Oeste 28 Sudoeste 0 -- -- 64
2020-04-30 11:00:00 13.7 7 Sudoeste 24 Oeste 0 -- -- 68
2020-04-30 10:00:00 13.3 6 Sudoeste 32 Sudeste 0 -- -- 65
2020-04-30 09:00:00 12.1 3 Sudoeste 9 Sudeste 0 -- -- 73
2020-04-30 08:00:00 12.1 3 Sudeste 14 Sur 0 -- -- 70
2020-04-30 07:00:00 12.3 6 Sudeste 12 Sur 0 -- -- 63
2020-04-30 06:00:00 12.8 2 Norte 23 Sudoeste 0 -- -- 58
2020-04-30 05:00:00 13.3 5 Sur 28 Noroeste 0 -- -- 57
2020-04-30 04:00:00 14.5 8 Sudoeste 48 Sur 0 -- -- 54
2020-04-30 03:00:00 14.8 8 Sur 33 Sur 0 -- -- 54
2020-04-30 02:00:00 14.8 5 Sudoeste 28 Sur 0 -- -- 56
2020-04-30 01:00:00 15.1 5 Sur 16 Sudoeste 0 -- -- 57
2020-04-30 00:00:00 15.8 6 Sur 26 Sur 0 -- -- 56
2020-04-29 23:00:00 16.1 8 Sudoeste 23 Sudoeste 0 -- -- 54
2020-04-29 22:00:00 16.6 10 Sudoeste 28 Sudoeste 0 -- -- 55
2020-04-29 21:00:00 15.9 3 Sur 21 Sudeste 0 -- -- 65
2020-04-29 20:00:00 16.7 8 Sudeste 17 Sur 0 -- -- 63
2020-04-29 19:00:00 17.3 6 Sur 41 Sudeste 0 -- -- 61
2020-04-29 18:00:00 18 7 Sur 22 Sudeste 0 -- -- 59
2020-04-29 17:00:00 19.1 12 Sudeste 25 Sudeste 0 -- -- 54
2020-04-29 16:00:00 19.8 15 Sudeste 27 Sudeste 0 -- -- 56
2020-04-29 15:00:00 18.4 14 Sudeste 29 Este 0 -- -- 56
2020-04-29 14:00:00 17.3 12 Sur 29 Sudeste 0 -- -- 62
2020-04-29 13:00:00 17.4 15 Sudeste 27 Sur 0 -- -- 62
2020-04-29 12:00:00 16.7 9 Sudeste 19 Sudeste 0 -- -- 67
2020-04-29 11:00:00 13.1 3 Nordeste 14 Este 0 -- -- 79
2020-04-29 10:00:00 10.5 3 Sur 6 Sudeste 0 -- -- 100
2020-04-29 09:00:00 6.6 0 Calma 3 Oeste 0 -- -- 99
2020-04-29 08:00:00 5.7 0 Calma 4 Sudoeste 0 -- -- 98
2020-04-29 07:00:00 5.5 0 Calma 10 Oeste 0 -- -- 98
2020-04-29 06:00:00 5.4 0 Calma 5 Oeste 0 -- -- 97
2020-04-29 05:00:00 5.5 0 Calma 3 Oeste 0 -- -- 96
2020-04-29 04:00:00 6.1 0 Calma 3 Sur 0 -- -- 96
2020-04-29 03:00:00 7 0 Calma 3 Sur 0 -- -- 95
2020-04-29 02:00:00 8.1 0 Calma 3 Norte 0 -- -- 94
2020-04-29 01:00:00 9 0 Calma 7 Norte 0 -- -- 91
2020-04-29 00:00:00 9.4 0 Calma 5 Sudoeste 0 -- -- 91
2020-04-28 23:00:00 9.9 0 Calma 6 Norte 0 -- -- 88
2020-04-28 22:00:00 10.6 5 Norte 17 Norte 0 -- -- 82
2020-04-28 21:00:00 11.2 8 Norte 20 Norte 0 -- -- 80
2020-04-28 20:00:00 12.1 13 Norte 27 Noroeste 0 -- -- 77
2020-04-28 19:00:00 12.9 12 Noroeste 32 Noroeste 0 -- -- 71
2020-04-28 18:00:00 13.6 12 Norte 36 Noroeste 0 -- -- 73
2020-04-28 17:00:00 15.8 7 Noroeste 23 Noroeste 0 -- -- 65
2020-04-28 16:00:00 15.5 7 Noroeste 34 Noroeste 0 -- -- 69
2020-04-28 15:00:00 16 7 Nordeste 32 Norte 0 -- -- 63
2020-04-28 14:00:00 17 14 Oeste 31 Oeste 0 -- -- 55
2020-04-28 13:00:00 15.8 9 Oeste 25 Oeste 0 -- -- 62
2020-04-28 12:00:00 13.8 5 Sudoeste 10 Sudoeste 0 -- -- 76
2020-04-28 11:00:00 11.7 4 Sur 14 Este 0 -- -- 92
2020-04-28 10:00:00 9.3 4 Este 12 Este 0 -- -- 98
2020-04-28 09:00:00 8.5 3 Sur 8 Este 0 -- -- 99
2020-04-28 08:00:00 7.4 5 Este 10 Este 0 -- -- 99
2020-04-28 07:00:00 7.4 2 Este 5 Este 0 -- -- 99
2020-04-28 06:00:00 7.2 0 Calma 3 Sudoeste 0 -- -- 99
2020-04-28 05:00:00 7.5 0 Calma 4 Este 0 -- -- 98
2020-04-28 04:00:00 6.6 0 Calma 3 Oeste 0 -- -- 98
2020-04-28 03:00:00 7.2 2 Norte 6 Norte 0 -- -- 97
2020-04-28 02:00:00 7.6 2 Norte 4 Norte 0 -- -- 96
2020-04-28 01:00:00 8.6 0 Calma 8 Norte 0 -- -- 94
2020-04-28 00:00:00 10 0 Calma 8 Oeste 0 -- -- 93